sensor_id;sensor_type;location;lat;lon;timestamp;P1;durP1;ratioP1;P2;durP2;ratioP2
56653;SDS011;45096;52.302;4.634;2022-12-11T00:00:50;35.50;;;19.73;;
56653;SDS011;45096;52.302;4.634;2022-12-11T00:03:16;39.40;;;20.27;;
56653;SDS011;45096;52.302;4.634;2022-12-11T00:05:42;31.83;;;19.53;;
56653;SDS011;45096;52.302;4.634;2022-12-11T00:08:07;35.90;;;19.53;;
56653;SDS011;45096;52.302;4.634;2022-12-11T00:10:33;32.70;;;20.03;;
56653;SDS011;45096;52.302;4.634;2022-12-11T00:12:58;37.17;;;20.00;;
56653;SDS011;45096;52.302;4.634;2022-12-11T00:15:25;38.07;;;19.77;;
56653;SDS011;45096;52.302;4.634;2022-12-11T00:17:51;33.67;;;19.00;;
56653;SDS011;45096;52.302;4.634;2022-12-11T00:20:17;29.83;;;17.63;;
56653;SDS011;45096;52.302;4.634;2022-12-11T00:22:42;33.03;;;19.73;;
56653;SDS011;45096;52.302;4.634;2022-12-11T00:25:08;31.60;;;18.40;;
56653;SDS011;45096;52.302;4.634;2022-12-11T00:27:33;30.07;;;17.60;;
56653;SDS011;45096;52.302;4.634;2022-12-11T00:29:58;35.27;;;18.80;;
56653;SDS011;45096;52.302;4.634;2022-12-11T00:32:25;33.33;;;19.27;;
56653;SDS011;45096;52.302;4.634;2022-12-11T00:34:51;33.23;;;19.03;;
56653;SDS011;45096;52.302;4.634;2022-12-11T00:37:16;30.60;;;18.23;;
56653;SDS011;45096;52.302;4.634;2022-12-11T00:39:41;31.47;;;19.17;;
56653;SDS011;45096;52.302;4.634;2022-12-11T00:42:07;31.60;;;17.77;;
56653;SDS011;45096;52.302;4.634;2022-12-11T00:44:32;30.37;;;19.00;;
56653;SDS011;45096;52.302;4.634;2022-12-11T00:46:58;29.30;;;18.57;;
56653;SDS011;45096;52.302;4.634;2022-12-11T00:49:25;32.63;;;18.10;;
56653;SDS011;45096;52.302;4.634;2022-12-11T00:51:50;30.63;;;18.90;;
56653;SDS011;45096;52.302;4.634;2022-12-11T00:54:16;31.97;;;19.03;;
56653;SDS011;45096;52.302;4.634;2022-12-11T00:56:41;34.93;;;19.23;;
56653;SDS011;45096;52.302;4.634;2022-12-11T00:59:07;32.17;;;19.17;;
56653;SDS011;45096;52.302;4.634;2022-12-11T01:01:32;33.07;;;19.40;;
56653;SDS011;45096;52.302;4.634;2022-12-11T01:03:57;36.13;;;19.93;;
56653;SDS011;45096;52.302;4.634;2022-12-11T01:06:25;32.63;;;18.43;;
56653;SDS011;45096;52.302;4.634;2022-12-11T01:08:51;35.37;;;19.37;;
56653;SDS011;45096;52.302;4.634;2022-12-11T01:11:17;34.37;;;19.57;;
56653;SDS011;45096;52.302;4.634;2022-12-11T01:13:42;35.70;;;19.73;;
56653;SDS011;45096;52.302;4.634;2022-12-11T01:16:08;34.93;;;20.83;;
56653;SDS011;45096;52.302;4.634;2022-12-11T01:18:34;33.33;;;19.83;;
56653;SDS011;45096;52.302;4.634;2022-12-11T01:21:04;36.33;;;20.20;;
56653;SDS011;45096;52.302;4.634;2022-12-11T01:23:31;35.00;;;20.90;;
56653;SDS011;45096;52.302;4.634;2022-12-11T01:25:56;35.67;;;19.77;;
56653;SDS011;45096;52.302;4.634;2022-12-11T01:28:22;33.80;;;19.83;;
56653;SDS011;45096;52.302;4.634;2022-12-11T01:30:47;34.57;;;20.67;;
56653;SDS011;45096;52.302;4.634;2022-12-11T01:33:13;30.77;;;19.93;;
56653;SDS011;45096;52.302;4.634;2022-12-11T01:35:38;31.87;;;19.80;;
56653;SDS011;45096;52.302;4.634;2022-12-11T01:38:04;35.90;;;19.67;;
56653;SDS011;45096;52.302;4.634;2022-12-11T01:40:31;29.57;;;17.23;;
56653;SDS011;45096;52.302;4.634;2022-12-11T01:42:56;31.03;;;19.03;;
56653;SDS011;45096;52.302;4.634;2022-12-11T01:45:23;33.07;;;18.10;;
56653;SDS011;45096;52.302;4.634;2022-12-11T01:47:52;36.47;;;19.63;;
56653;SDS011;45096;52.302;4.634;2022-12-11T01:50:20;35.40;;;20.87;;
56653;SDS011;45096;52.302;4.634;2022-12-11T01:52:45;31.93;;;19.93;;
56653;SDS011;45096;52.302;4.634;2022-12-11T01:55:11;35.50;;;20.80;;
56653;SDS011;45096;52.302;4.634;2022-12-11T01:57:39;36.47;;;20.43;;
56653;SDS011;45096;52.302;4.634;2022-12-11T02:00:07;34.80;;;20.87;;
56653;SDS011;45096;52.302;4.634;2022-12-11T02:02:33;33.70;;;19.60;;
56653;SDS011;45096;52.302;4.634;2022-12-11T02:05:00;31.93;;;19.13;;
56653;SDS011;45096;52.302;4.634;2022-12-11T02:07:26;31.17;;;19.77;;
56653;SDS011;45096;52.302;4.634;2022-12-11T02:09:52;31.37;;;19.90;;
56653;SDS011;45096;52.302;4.634;2022-12-11T02:12:18;29.43;;;18.47;;
56653;SDS011;45096;52.302;4.634;2022-12-11T02:14:51;30.30;;;19.53;;
56653;SDS011;45096;52.302;4.634;2022-12-11T02:17:21;30.83;;;19.53;;
56653;SDS011;45096;52.302;4.634;2022-12-11T02:19:52;30.67;;;17.93;;
56653;SDS011;45096;52.302;4.634;2022-12-11T02:22:25;35.03;;;21.13;;
56653;SDS011;45096;52.302;4.634;2022-12-11T02:24:56;29.53;;;17.93;;
56653;SDS011;45096;52.302;4.634;2022-12-11T02:27:29;34.30;;;20.37;;
56653;SDS011;45096;52.302;4.634;2022-12-11T02:30:00;31.93;;;18.87;;
56653;SDS011;45096;52.302;4.634;2022-12-11T02:32:29;33.80;;;20.77;;
56653;SDS011;45096;52.302;4.634;2022-12-11T02:34:58;34.63;;;19.93;;
56653;SDS011;45096;52.302;4.634;2022-12-11T02:37:29;30.87;;;18.87;;
56653;SDS011;45096;52.302;4.634;2022-12-11T02:39:55;32.43;;;19.80;;
56653;SDS011;45096;52.302;4.634;2022-12-11T02:42:21;28.87;;;18.63;;
56653;SDS011;45096;52.302;4.634;2022-12-11T02:44:50;27.83;;;19.37;;
56653;SDS011;45096;52.302;4.634;2022-12-11T02:47:18;30.30;;;19.20;;
56653;SDS011;45096;52.302;4.634;2022-12-11T02:49:46;29.93;;;18.70;;
56653;SDS011;45096;52.302;4.634;2022-12-11T02:52:13;30.33;;;18.87;;
56653;SDS011;45096;52.302;4.634;2022-12-11T02:54:40;28.93;;;18.07;;
56653;SDS011;45096;52.302;4.634;2022-12-11T02:57:07;28.73;;;18.13;;
56653;SDS011;45096;52.302;4.634;2022-12-11T02:59:36;25.57;;;16.23;;
56653;SDS011;45096;52.302;4.634;2022-12-11T03:02:03;28.50;;;17.47;;
56653;SDS011;45096;52.302;4.634;2022-12-11T03:04:30;30.10;;;18.47;;
56653;SDS011;45096;52.302;4.634;2022-12-11T03:06:57;27.57;;;16.87;;
56653;SDS011;45096;52.302;4.634;2022-12-11T03:09:26;29.63;;;17.73;;
56653;SDS011;45096;52.302;4.634;2022-12-11T03:11:51;27.77;;;16.53;;
56653;SDS011;45096;52.302;4.634;2022-12-11T03:14:17;28.00;;;18.37;;
56653;SDS011;45096;52.302;4.634;2022-12-11T03:16:45;27.87;;;17.00;;
56653;SDS011;45096;52.302;4.634;2022-12-11T03:19:17;27.63;;;18.07;;
56653;SDS011;45096;52.302;4.634;2022-12-11T03:21:49;23.47;;;16.70;;
56653;SDS011;45096;52.302;4.634;2022-12-11T03:24:18;26.57;;;16.33;;
56653;SDS011;45096;52.302;4.634;2022-12-11T03:26:48;27.33;;;16.80;;
56653;SDS011;45096;52.302;4.634;2022-12-11T03:29:17;23.67;;;16.67;;
56653;SDS011;45096;52.302;4.634;2022-12-11T03:31:45;28.60;;;17.03;;
56653;SDS011;45096;52.302;4.634;2022-12-11T03:34:15;23.60;;;15.53;;
56653;SDS011;45096;52.302;4.634;2022-12-11T03:36:42;28.00;;;17.60;;
56653;SDS011;45096;52.302;4.634;2022-12-11T03:39:12;28.53;;;17.37;;
56653;SDS011;45096;52.302;4.634;2022-12-11T03:41:39;28.77;;;17.50;;
56653;SDS011;45096;52.302;4.634;2022-12-11T03:44:06;30.17;;;17.57;;
56653;SDS011;45096;52.302;4.634;2022-12-11T03:46:33;29.13;;;17.83;;
56653;SDS011;45096;52.302;4.634;2022-12-11T03:49:01;26.80;;;16.43;;
56653;SDS011;45096;52.302;4.634;2022-12-11T03:51:30;27.10;;;17.30;;
56653;SDS011;45096;52.302;4.634;2022-12-11T03:53:56;25.53;;;16.47;;
56653;SDS011;45096;52.302;4.634;2022-12-11T03:56:24;28.80;;;17.40;;
56653;SDS011;45096;52.302;4.634;2022-12-11T03:58:51;28.97;;;18.27;;
56653;SDS011;45096;52.302;4.634;2022-12-11T04:01:16;30.13;;;18.67;;
56653;SDS011;45096;52.302;4.634;2022-12-11T04:03:42;29.30;;;18.73;;
56653;SDS011;45096;52.302;4.634;2022-12-11T04:06:07;33.93;;;19.33;;
56653;SDS011;45096;52.302;4.634;2022-12-11T04:08:33;35.67;;;20.73;;
56653;SDS011;45096;52.302;4.634;2022-12-11T04:10:58;32.03;;;18.73;;
56653;SDS011;45096;52.302;4.634;2022-12-11T04:13:25;32.77;;;19.73;;
56653;SDS011;45096;52.302;4.634;2022-12-11T04:15:50;28.37;;;19.40;;
56653;SDS011;45096;52.302;4.634;2022-12-11T04:18:15;32.77;;;19.53;;
56653;SDS011;45096;52.302;4.634;2022-12-11T04:20:41;26.63;;;17.37;;
56653;SDS011;45096;52.302;4.634;2022-12-11T04:23:10;29.97;;;17.97;;
56653;SDS011;45096;52.302;4.634;2022-12-11T04:25:37;31.77;;;17.87;;
56653;SDS011;45096;52.302;4.634;2022-12-11T04:28:02;32.23;;;19.13;;
56653;SDS011;45096;52.302;4.634;2022-12-11T04:30:29;29.20;;;18.63;;
56653;SDS011;45096;52.302;4.634;2022-12-11T04:32:54;30.93;;;17.67;;
56653;SDS011;45096;52.302;4.634;2022-12-11T04:35:20;33.37;;;19.93;;
56653;SDS011;45096;52.302;4.634;2022-12-11T04:37:46;32.27;;;18.80;;
56653;SDS011;45096;52.302;4.634;2022-12-11T04:40:12;32.13;;;20.23;;
56653;SDS011;45096;52.302;4.634;2022-12-11T04:42:39;34.27;;;19.30;;
56653;SDS011;45096;52.302;4.634;2022-12-11T04:45:06;31.97;;;19.07;;
56653;SDS011;45096;52.302;4.634;2022-12-11T04:47:34;29.27;;;18.90;;
56653;SDS011;45096;52.302;4.634;2022-12-11T04:49:59;32.90;;;18.63;;
56653;SDS011;45096;52.302;4.634;2022-12-11T04:52:25;28.20;;;17.57;;
56653;SDS011;45096;52.302;4.634;2022-12-11T04:54:50;36.33;;;20.23;;
56653;SDS011;45096;52.302;4.634;2022-12-11T04:57:16;35.37;;;18.47;;
56653;SDS011;45096;52.302;4.634;2022-12-11T04:59:41;32.07;;;18.17;;
56653;SDS011;45096;52.302;4.634;2022-12-11T05:02:06;34.23;;;18.97;;
56653;SDS011;45096;52.302;4.634;2022-12-11T05:04:33;36.63;;;20.00;;
56653;SDS011;45096;52.302;4.634;2022-12-11T05:06:59;30.30;;;18.80;;
56653;SDS011;45096;52.302;4.634;2022-12-11T05:09:25;35.87;;;20.13;;
56653;SDS011;45096;52.302;4.634;2022-12-11T05:11:50;38.70;;;21.17;;
56653;SDS011;45096;52.302;4.634;2022-12-11T05:14:16;32.63;;;19.33;;
56653;SDS011;45096;52.302;4.634;2022-12-11T05:16:41;36.63;;;20.30;;
56653;SDS011;45096;52.302;4.634;2022-12-11T05:19:07;37.33;;;20.07;;
56653;SDS011;45096;52.302;4.634;2022-12-11T05:21:34;32.23;;;18.93;;
56653;SDS011;45096;52.302;4.634;2022-12-11T05:23:59;30.07;;;18.90;;
56653;SDS011;45096;52.302;4.634;2022-12-11T05:26:25;30.80;;;17.03;;
56653;SDS011;45096;52.302;4.634;2022-12-11T05:28:50;31.93;;;19.90;;
56653;SDS011;45096;52.302;4.634;2022-12-11T05:31:17;33.37;;;18.90;;
56653;SDS011;45096;52.302;4.634;2022-12-11T05:33:45;30.77;;;17.17;;
56653;SDS011;45096;52.302;4.634;2022-12-11T05:36:13;31.10;;;18.47;;
56653;SDS011;45096;52.302;4.634;2022-12-11T05:38:41;30.23;;;17.30;;
56653;SDS011;45096;52.302;4.634;2022-12-11T05:41:07;29.80;;;17.90;;
56653;SDS011;45096;52.302;4.634;2022-12-11T05:43:33;27.63;;;16.53;;
56653;SDS011;45096;52.302;4.634;2022-12-11T05:46:03;28.37;;;16.90;;
56653;SDS011;45096;52.302;4.634;2022-12-11T05:48:30;25.23;;;15.80;;
56653;SDS011;45096;52.302;4.634;2022-12-11T05:50:56;26.23;;;16.00;;
56653;SDS011;45096;52.302;4.634;2022-12-11T05:53:21;24.77;;;15.50;;
56653;SDS011;45096;52.302;4.634;2022-12-11T05:55:48;23.70;;;16.17;;
56653;SDS011;45096;52.302;4.634;2022-12-11T05:58:13;28.97;;;15.43;;
56653;SDS011;45096;52.302;4.634;2022-12-11T06:00:40;25.57;;;15.77;;
56653;SDS011;45096;52.302;4.634;2022-12-11T06:03:05;29.93;;;16.73;;
56653;SDS011;45096;52.302;4.634;2022-12-11T06:05:31;25.47;;;14.87;;
56653;SDS011;45096;52.302;4.634;2022-12-11T06:07:56;28.57;;;16.17;;
56653;SDS011;45096;52.302;4.634;2022-12-11T06:10:22;26.60;;;15.67;;
56653;SDS011;45096;52.302;4.634;2022-12-11T06:12:48;29.90;;;16.47;;
56653;SDS011;45096;52.302;4.634;2022-12-11T06:15:14;30.43;;;15.93;;
56653;SDS011;45096;52.302;4.634;2022-12-11T06:17:39;26.83;;;16.33;;
56653;SDS011;45096;52.302;4.634;2022-12-11T06:20:05;26.93;;;15.53;;
56653;SDS011;45096;52.302;4.634;2022-12-11T06:22:31;26.13;;;15.23;;
56653;SDS011;45096;52.302;4.634;2022-12-11T06:24:56;31.27;;;17.27;;
56653;SDS011;45096;52.302;4.634;2022-12-11T06:27:21;28.23;;;15.47;;
56653;SDS011;45096;52.302;4.634;2022-12-11T06:29:48;25.43;;;15.07;;
56653;SDS011;45096;52.302;4.634;2022-12-11T06:32:13;24.00;;;15.40;;
56653;SDS011;45096;52.302;4.634;2022-12-11T06:34:39;24.37;;;15.30;;
56653;SDS011;45096;52.302;4.634;2022-12-11T06:37:04;25.67;;;15.30;;
56653;SDS011;45096;52.302;4.634;2022-12-11T06:39:30;27.27;;;15.30;;
56653;SDS011;45096;52.302;4.634;2022-12-11T06:41:55;26.13;;;14.60;;
56653;SDS011;45096;52.302;4.634;2022-12-11T06:44:20;32.73;;;18.83;;
56653;SDS011;45096;52.302;4.634;2022-12-11T06:46:47;36.93;;;22.33;;
56653;SDS011;45096;52.302;4.634;2022-12-11T06:49:13;31.47;;;16.97;;
56653;SDS011;45096;52.302;4.634;2022-12-11T06:51:38;29.37;;;17.13;;
56653;SDS011;45096;52.302;4.634;2022-12-11T06:54:03;26.80;;;15.80;;
56653;SDS011;45096;52.302;4.634;2022-12-11T06:56:29;21.87;;;14.07;;
56653;SDS011;45096;52.302;4.634;2022-12-11T06:58:54;22.77;;;14.63;;
56653;SDS011;45096;52.302;4.634;2022-12-11T07:01:20;27.87;;;16.23;;
56653;SDS011;45096;52.302;4.634;2022-12-11T07:03:51;29.67;;;17.20;;
56653;SDS011;45096;52.302;4.634;2022-12-11T07:06:16;30.27;;;18.00;;
56653;SDS011;45096;52.302;4.634;2022-12-11T07:08:42;24.37;;;14.63;;
56653;SDS011;45096;52.302;4.634;2022-12-11T07:11:08;27.27;;;14.97;;
56653;SDS011;45096;52.302;4.634;2022-12-11T07:13:35;23.43;;;14.07;;
56653;SDS011;45096;52.302;4.634;2022-12-11T07:16:00;22.77;;;13.53;;
56653;SDS011;45096;52.302;4.634;2022-12-11T07:18:26;19.53;;;13.13;;
56653;SDS011;45096;52.302;4.634;2022-12-11T07:20:53;22.63;;;13.80;;
56653;SDS011;45096;52.302;4.634;2022-12-11T07:23:18;23.60;;;12.23;;
56653;SDS011;45096;52.302;4.634;2022-12-11T07:25:44;17.60;;;12.23;;
56653;SDS011;45096;52.302;4.634;2022-12-11T07:28:09;21.90;;;12.80;;
56653;SDS011;45096;52.302;4.634;2022-12-11T07:30:36;19.83;;;12.60;;
56653;SDS011;45096;52.302;4.634;2022-12-11T07:33:02;21.50;;;12.70;;
56653;SDS011;45096;52.302;4.634;2022-12-11T07:35:27;22.40;;;12.97;;
56653;SDS011;45096;52.302;4.634;2022-12-11T07:37:54;22.23;;;12.97;;
56653;SDS011;45096;52.302;4.634;2022-12-11T07:40:19;22.43;;;12.83;;
56653;SDS011;45096;52.302;4.634;2022-12-11T07:42:45;19.27;;;11.77;;
56653;SDS011;45096;52.302;4.634;2022-12-11T07:45:10;22.40;;;12.47;;
56653;SDS011;45096;52.302;4.634;2022-12-11T07:47:35;22.43;;;12.60;;
56653;SDS011;45096;52.302;4.634;2022-12-11T07:50:01;19.67;;;12.27;;
56653;SDS011;45096;52.302;4.634;2022-12-11T07:52:26;22.60;;;12.03;;
56653;SDS011;45096;52.302;4.634;2022-12-11T07:54:53;17.57;;;12.07;;
56653;SDS011;45096;52.302;4.634;2022-12-11T07:57:18;18.77;;;11.70;;
56653;SDS011;45096;52.302;4.634;2022-12-11T07:59:45;20.90;;;12.07;;
56653;SDS011;45096;52.302;4.634;2022-12-11T08:02:10;19.83;;;11.60;;
56653;SDS011;45096;52.302;4.634;2022-12-11T08:04:36;26.93;;;13.60;;
56653;SDS011;45096;52.302;4.634;2022-12-11T08:07:01;20.07;;;13.07;;
56653;SDS011;45096;52.302;4.634;2022-12-11T08:09:26;20.00;;;11.87;;
56653;SDS011;45096;52.302;4.634;2022-12-11T08:11:53;21.17;;;11.73;;
56653;SDS011;45096;52.302;4.634;2022-12-11T08:14:19;19.80;;;12.33;;
56653;SDS011;45096;52.302;4.634;2022-12-11T08:16:44;22.60;;;13.60;;
56653;SDS011;45096;52.302;4.634;2022-12-11T08:19:10;21.17;;;12.60;;
56653;SDS011;45096;52.302;4.634;2022-12-11T08:21:35;19.97;;;11.90;;
56653;SDS011;45096;52.302;4.634;2022-12-11T08:24:00;20.90;;;12.57;;
56653;SDS011;45096;52.302;4.634;2022-12-11T08:26:26;19.43;;;12.60;;
56653;SDS011;45096;52.302;4.634;2022-12-11T08:28:54;22.70;;;12.90;;
56653;SDS011;45096;52.302;4.634;2022-12-11T08:31:20;23.40;;;12.93;;
56653;SDS011;45096;52.302;4.634;2022-12-11T08:33:46;24.73;;;13.50;;
56653;SDS011;45096;52.302;4.634;2022-12-11T08:36:12;19.50;;;12.67;;
56653;SDS011;45096;52.302;4.634;2022-12-11T08:38:39;21.13;;;11.47;;
56653;SDS011;45096;52.302;4.634;2022-12-11T08:41:08;20.50;;;12.10;;
56653;SDS011;45096;52.302;4.634;2022-12-11T08:43:34;20.03;;;11.97;;
56653;SDS011;45096;52.302;4.634;2022-12-11T08:46:00;22.90;;;12.13;;
56653;SDS011;45096;52.302;4.634;2022-12-11T08:48:26;19.93;;;12.00;;
56653;SDS011;45096;52.302;4.634;2022-12-11T08:50:51;17.17;;;11.80;;
56653;SDS011;45096;52.302;4.634;2022-12-11T08:53:17;21.73;;;13.18;;
56653;SDS011;45096;52.302;4.634;2022-12-11T08:55:42;20.73;;;13.27;;
56653;SDS011;45096;52.302;4.634;2022-12-11T08:58:07;20.93;;;12.80;;
56653;SDS011;45096;52.302;4.634;2022-12-11T09:00:33;24.50;;;12.23;;
56653;SDS011;45096;52.302;4.634;2022-12-11T09:03:00;18.67;;;11.93;;
56653;SDS011;45096;52.302;4.634;2022-12-11T09:05:25;20.40;;;11.20;;
56653;SDS011;45096;52.302;4.634;2022-12-11T09:07:50;21.60;;;11.67;;
56653;SDS011;45096;52.302;4.634;2022-12-11T09:10:16;21.13;;;12.43;;
56653;SDS011;45096;52.302;4.634;2022-12-11T09:12:41;20.93;;;12.40;;
56653;SDS011;45096;52.302;4.634;2022-12-11T09:15:07;22.37;;;13.77;;
56653;SDS011;45096;52.302;4.634;2022-12-11T09:17:33;21.20;;;13.00;;
56653;SDS011;45096;52.302;4.634;2022-12-11T09:20:00;23.27;;;12.47;;
56653;SDS011;45096;52.302;4.634;2022-12-11T09:22:25;22.13;;;13.07;;
56653;SDS011;45096;52.302;4.634;2022-12-11T09:24:51;20.60;;;12.50;;
56653;SDS011;45096;52.302;4.634;2022-12-11T09:27:16;21.57;;;11.13;;
56653;SDS011;45096;52.302;4.634;2022-12-11T09:29:41;21.67;;;12.80;;
56653;SDS011;45096;52.302;4.634;2022-12-11T09:32:07;21.48;;;12.35;;
56653;SDS011;45096;52.302;4.634;2022-12-11T09:34:32;23.53;;;13.20;;
56653;SDS011;45096;52.302;4.634;2022-12-11T09:36:59;18.03;;;12.10;;
56653;SDS011;45096;52.302;4.634;2022-12-11T09:39:24;19.83;;;11.23;;
56653;SDS011;45096;52.302;4.634;2022-12-11T09:41:51;21.90;;;12.10;;
56653;SDS011;45096;52.302;4.634;2022-12-11T09:44:23;19.67;;;13.47;;
56653;SDS011;45096;52.302;4.634;2022-12-11T09:46:55;24.77;;;13.83;;
56653;SDS011;45096;52.302;4.634;2022-12-11T09:49:23;18.03;;;11.50;;
56653;SDS011;45096;52.302;4.634;2022-12-11T09:51:53;19.27;;;10.70;;
56653;SDS011;45096;52.302;4.634;2022-12-11T09:54:26;21.70;;;12.70;;
56653;SDS011;45096;52.302;4.634;2022-12-11T09:56:54;19.65;;;12.75;;
56653;SDS011;45096;52.302;4.634;2022-12-11T09:59:25;18.27;;;11.45;;
56653;SDS011;45096;52.302;4.634;2022-12-11T10:01:53;19.67;;;12.27;;
56653;SDS011;45096;52.302;4.634;2022-12-11T10:04:27;18.73;;;11.87;;
56653;SDS011;45096;52.302;4.634;2022-12-11T10:07:02;18.00;;;11.47;;
56653;SDS011;45096;52.302;4.634;2022-12-11T10:09:34;21.03;;;12.13;;
56653;SDS011;45096;52.302;4.634;2022-12-11T10:12:08;21.03;;;12.33;;
56653;SDS011;45096;52.302;4.634;2022-12-11T10:14:44;21.80;;;13.17;;
56653;SDS011;45096;52.302;4.634;2022-12-11T10:17:17;22.23;;;12.97;;
56653;SDS011;45096;52.302;4.634;2022-12-11T10:19:43;17.53;;;11.53;;
56653;SDS011;45096;52.302;4.634;2022-12-11T10:22:13;22.37;;;13.53;;
56653;SDS011;45096;52.302;4.634;2022-12-11T10:24:42;25.20;;;14.27;;
56653;SDS011;45096;52.302;4.634;2022-12-11T10:27:13;26.73;;;14.63;;
56653;SDS011;45096;52.302;4.634;2022-12-11T10:29:40;23.80;;;14.20;;
56653;SDS011;45096;52.302;4.634;2022-12-11T10:32:06;22.37;;;13.03;;
56653;SDS011;45096;52.302;4.634;2022-12-11T10:34:40;20.27;;;13.37;;
56653;SDS011;45096;52.302;4.634;2022-12-11T10:37:08;21.53;;;12.87;;
56653;SDS011;45096;52.302;4.634;2022-12-11T10:39:35;23.07;;;13.50;;
56653;SDS011;45096;52.302;4.634;2022-12-11T10:42:00;23.80;;;14.33;;
56653;SDS011;45096;52.302;4.634;2022-12-11T10:44:27;19.67;;;11.70;;
56653;SDS011;45096;52.302;4.634;2022-12-11T10:47:03;22.63;;;14.00;;
56653;SDS011;45096;52.302;4.634;2022-12-11T10:49:30;20.93;;;12.73;;
56653;SDS011;45096;52.302;4.634;2022-12-11T10:51:57;23.43;;;13.53;;
56653;SDS011;45096;52.302;4.634;2022-12-11T10:54:28;22.73;;;13.70;;
56653;SDS011;45096;52.302;4.634;2022-12-11T10:56:57;20.13;;;12.37;;
56653;SDS011;45096;52.302;4.634;2022-12-11T10:59:23;24.23;;;14.27;;
56653;SDS011;45096;52.302;4.634;2022-12-11T11:01:51;30.27;;;15.23;;
56653;SDS011;45096;52.302;4.634;2022-12-11T11:04:18;19.40;;;12.83;;
56653;SDS011;45096;52.302;4.634;2022-12-11T11:06:45;22.33;;;13.70;;
56653;SDS011;45096;52.302;4.634;2022-12-11T11:09:28;22.33;;;13.40;;
56653;SDS011;45096;52.302;4.634;2022-12-11T11:11:54;26.00;;;14.97;;
56653;SDS011;45096;52.302;4.634;2022-12-11T11:14:22;26.20;;;14.67;;
56653;SDS011;45096;52.302;4.634;2022-12-11T11:16:48;26.53;;;14.37;;
56653;SDS011;45096;52.302;4.634;2022-12-11T11:19:18;20.50;;;13.73;;
56653;SDS011;45096;52.302;4.634;2022-12-11T11:21:47;21.20;;;12.50;;
56653;SDS011;45096;52.302;4.634;2022-12-11T11:24:17;24.13;;;14.03;;
56653;SDS011;45096;52.302;4.634;2022-12-11T11:26:54;26.93;;;13.77;;
56653;SDS011;45096;52.302;4.634;2022-12-11T11:29:24;23.67;;;12.83;;
56653;SDS011;45096;52.302;4.634;2022-12-11T11:31:52;24.60;;;15.20;;
56653;SDS011;45096;52.302;4.634;2022-12-11T11:34:18;25.27;;;15.73;;
56653;SDS011;45096;52.302;4.634;2022-12-11T11:36:44;29.30;;;15.93;;
56653;SDS011;45096;52.302;4.634;2022-12-11T11:39:22;29.30;;;16.30;;
56653;SDS011;45096;52.302;4.634;2022-12-11T11:41:51;24.00;;;14.53;;
56653;SDS011;45096;52.302;4.634;2022-12-11T11:44:24;26.07;;;14.33;;
56653;SDS011;45096;52.302;4.634;2022-12-11T11:46:53;27.40;;;14.47;;
56653;SDS011;45096;52.302;4.634;2022-12-11T11:49:22;25.73;;;15.23;;
56653;SDS011;45096;52.302;4.634;2022-12-11T11:51:50;25.23;;;14.83;;
56653;SDS011;45096;52.302;4.634;2022-12-11T11:54:20;26.37;;;15.43;;
56653;SDS011;45096;52.302;4.634;2022-12-11T11:56:50;24.93;;;15.37;;
56653;SDS011;45096;52.302;4.634;2022-12-11T11:59:17;26.60;;;14.43;;
56653;SDS011;45096;52.302;4.634;2022-12-11T12:01:47;30.73;;;16.17;;
56653;SDS011;45096;52.302;4.634;2022-12-11T12:04:12;30.63;;;17.63;;
56653;SDS011;45096;52.302;4.634;2022-12-11T12:06:43;25.40;;;15.03;;
56653;SDS011;45096;52.302;4.634;2022-12-11T12:09:24;26.87;;;14.87;;
56653;SDS011;45096;52.302;4.634;2022-12-11T12:12:00;25.30;;;14.83;;
56653;SDS011;45096;52.302;4.634;2022-12-11T12:14:34;27.53;;;15.57;;
56653;SDS011;45096;52.302;4.634;2022-12-11T12:17:15;33.20;;;17.20;;
56653;SDS011;45096;52.302;4.634;2022-12-11T12:19:46;28.40;;;16.17;;
56653;SDS011;45096;52.302;4.634;2022-12-11T12:22:18;28.43;;;16.53;;
56653;SDS011;45096;52.302;4.634;2022-12-11T12:24:51;25.57;;;15.87;;
56653;SDS011;45096;52.302;4.634;2022-12-11T12:27:20;25.52;;;15.30;;
56653;SDS011;45096;52.302;4.634;2022-12-11T12:29:51;27.02;;;16.75;;
56653;SDS011;45096;52.302;4.634;2022-12-11T12:32:24;29.53;;;16.73;;
56653;SDS011;45096;52.302;4.634;2022-12-11T12:34:56;29.77;;;16.87;;
56653;SDS011;45096;52.302;4.634;2022-12-11T12:37:33;29.60;;;15.90;;
56653;SDS011;45096;52.302;4.634;2022-12-11T12:40:09;25.23;;;15.20;;
56653;SDS011;45096;52.302;4.634;2022-12-11T12:42:41;27.33;;;14.70;;
56653;SDS011;45096;52.302;4.634;2022-12-11T12:45:15;24.30;;;14.20;;
56653;SDS011;45096;52.302;4.634;2022-12-11T12:47:45;24.90;;;15.40;;
56653;SDS011;45096;52.302;4.634;2022-12-11T12:50:11;35.90;;;19.57;;
56653;SDS011;45096;52.302;4.634;2022-12-11T12:52:39;32.87;;;18.93;;
56653;SDS011;45096;52.302;4.634;2022-12-11T12:55:12;30.90;;;17.23;;
56653;SDS011;45096;52.302;4.634;2022-12-11T12:57:44;26.67;;;15.10;;
56653;SDS011;45096;52.302;4.634;2022-12-11T13:00:11;27.10;;;15.53;;
56653;SDS011;45096;52.302;4.634;2022-12-11T13:02:37;26.60;;;14.43;;
56653;SDS011;45096;52.302;4.634;2022-12-11T13:05:05;27.03;;;14.93;;
56653;SDS011;45096;52.302;4.634;2022-12-11T13:07:46;22.80;;;14.00;;
56653;SDS011;45096;52.302;4.634;2022-12-11T13:10:21;26.40;;;14.67;;
56653;SDS011;45096;52.302;4.634;2022-12-11T13:12:48;27.30;;;16.23;;
56653;SDS011;45096;52.302;4.634;2022-12-11T13:15:28;25.07;;;14.97;;
56653;SDS011;45096;52.302;4.634;2022-12-11T13:17:59;28.60;;;17.27;;
56653;SDS011;45096;52.302;4.634;2022-12-11T13:20:27;26.47;;;15.33;;
56653;SDS011;45096;52.302;4.634;2022-12-11T13:22:55;30.00;;;18.23;;
56653;SDS011;45096;52.302;4.634;2022-12-11T13:25:44;30.43;;;17.53;;
56653;SDS011;45096;52.302;4.634;2022-12-11T13:28:19;29.77;;;18.23;;
56653;SDS011;45096;52.302;4.634;2022-12-11T13:30:54;31.20;;;17.55;;
56653;SDS011;45096;52.302;4.634;2022-12-11T13:33:21;30.10;;;16.03;;
56653;SDS011;45096;52.302;4.634;2022-12-11T13:35:47;26.13;;;15.77;;
56653;SDS011;45096;52.302;4.634;2022-12-11T13:38:14;25.40;;;15.45;;
56653;SDS011;45096;52.302;4.634;2022-12-11T13:40:41;27.03;;;15.87;;
56653;SDS011;45096;52.302;4.634;2022-12-11T13:43:14;29.03;;;16.50;;
56653;SDS011;45096;52.302;4.634;2022-12-11T13:45:42;25.63;;;14.73;;
56653;SDS011;45096;52.302;4.634;2022-12-11T13:48:14;30.42;;;16.42;;
56653;SDS011;45096;52.302;4.634;2022-12-11T13:50:43;33.20;;;17.23;;
56653;SDS011;45096;52.302;4.634;2022-12-11T13:53:13;30.93;;;17.37;;
56653;SDS011;45096;52.302;4.634;2022-12-11T13:55:40;29.93;;;16.90;;
56653;SDS011;45096;52.302;4.634;2022-12-11T13:58:13;27.17;;;15.43;;
56653;SDS011;45096;52.302;4.634;2022-12-11T14:00:40;26.80;;;15.60;;
56653;SDS011;45096;52.302;4.634;2022-12-11T14:03:05;30.17;;;16.77;;
56653;SDS011;45096;52.302;4.634;2022-12-11T14:05:30;28.27;;;15.45;;
56653;SDS011;45096;52.302;4.634;2022-12-11T14:07:58;27.20;;;15.77;;
56653;SDS011;45096;52.302;4.634;2022-12-11T14:10:30;32.83;;;18.10;;
56653;SDS011;45096;52.302;4.634;2022-12-11T14:12:58;30.02;;;16.75;;
56653;SDS011;45096;52.302;4.634;2022-12-11T14:15:25;31.13;;;16.10;;
56653;SDS011;45096;52.302;4.634;2022-12-11T14:17:51;26.00;;;16.00;;
56653;SDS011;45096;52.302;4.634;2022-12-11T14:20:18;27.63;;;16.23;;
56653;SDS011;45096;52.302;4.634;2022-12-11T14:22:44;27.83;;;16.53;;